sensor_id;sensor_type;location;lat;lon;timestamp;P1;durP1;ratioP1;P2;durP2;ratioP2
59418;SDS011;45224;50.904;6.038;2022-09-09T00:03:00;3.50;;;0.70;;
59418;SDS011;45224;50.904;6.038;2022-09-09T00:04:37;2.15;;;0.90;;
59418;SDS011;45224;50.904;6.038;2022-09-09T00:06:18;3.00;;;0.90;;
59418;SDS011;45224;50.904;6.038;2022-09-09T00:07:54;2.03;;;0.70;;
59418;SDS011;45224;50.904;6.038;2022-09-09T00:09:30;1.23;;;0.60;;
59418;SDS011;45224;50.904;6.038;2022-09-09T00:11:09;1.58;;;0.75;;
59418;SDS011;45224;50.904;6.038;2022-09-09T00:14:49;2.85;;;0.90;;
59418;SDS011;45224;50.904;6.038;2022-09-09T00:16:25;1.53;;;0.70;;
59418;SDS011;45224;50.904;6.038;2022-09-09T00:18:05;3.15;;;0.95;;
59418;SDS011;45224;50.904;6.038;2022-09-09T00:19:46;3.47;;;0.60;;
59418;SDS011;45224;50.904;6.038;2022-09-09T00:21:30;2.13;;;0.63;;
59418;SDS011;45224;50.904;6.038;2022-09-09T00:23:10;4.88;;;0.80;;
59418;SDS011;45224;50.904;6.038;2022-09-09T00:26:36;5.80;;;0.95;;
59418;SDS011;45224;50.904;6.038;2022-09-09T00:28:22;2.30;;;0.60;;
59418;SDS011;45224;50.904;6.038;2022-09-09T00:30:14;1.20;;;0.60;;
59418;SDS011;45224;50.904;6.038;2022-09-09T00:32:04;2.80;;;0.60;;
59418;SDS011;45224;50.904;6.038;2022-09-09T00:33:42;1.60;;;0.65;;
59418;SDS011;45224;50.904;6.038;2022-09-09T00:35:16;1.73;;;0.70;;
59418;SDS011;45224;50.904;6.038;2022-09-09T00:36:52;1.52;;;0.63;;
59418;SDS011;45224;50.904;6.038;2022-09-09T00:38:36;1.23;;;0.57;;
59418;SDS011;45224;50.904;6.038;2022-09-09T00:40:17;2.33;;;0.70;;
59418;SDS011;45224;50.904;6.038;2022-09-09T00:43:40;6.28;;;0.95;;
59418;SDS011;45224;50.904;6.038;2022-09-09T00:50:46;2.35;;;0.60;;
59418;SDS011;45224;50.904;6.038;2022-09-09T00:52:39;1.80;;;0.70;;
59418;SDS011;45224;50.904;6.038;2022-09-09T00:56:30;3.13;;;0.73;;
59418;SDS011;45224;50.904;6.038;2022-09-09T00:58:26;3.63;;;0.80;;
59418;SDS011;45224;50.904;6.038;2022-09-09T01:01:48;3.40;;;0.88;;
59418;SDS011;45224;50.904;6.038;2022-09-09T01:04:54;3.63;;;0.90;;
59418;SDS011;45224;50.904;6.038;2022-09-09T01:06:36;3.00;;;0.65;;
59418;SDS011;45224;50.904;6.038;2022-09-09T01:08:11;6.20;;;1.00;;
59418;SDS011;45224;50.904;6.038;2022-09-09T01:10:11;2.22;;;0.80;;
59418;SDS011;45224;50.904;6.038;2022-09-09T01:14:44;4.13;;;1.10;;
59418;SDS011;45224;50.904;6.038;2022-09-09T01:16:02;4.22;;;1.30;;
59418;SDS011;45224;50.904;6.038;2022-09-09T01:17:46;8.90;;;1.80;;
59418;SDS011;45224;50.904;6.038;2022-09-09T01:19:24;5.35;;;1.30;;
59418;SDS011;45224;50.904;6.038;2022-09-09T01:27:27;4.38;;;1.20;;
59418;SDS011;45224;50.904;6.038;2022-09-09T01:28:58;4.78;;;1.20;;
59418;SDS011;45224;50.904;6.038;2022-09-09T01:30:40;2.95;;;0.90;;
59418;SDS011;45224;50.904;6.038;2022-09-09T01:34:10;8.10;;;1.23;;
59418;SDS011;45224;50.904;6.038;2022-09-09T01:35:45;5.85;;;1.10;;
59418;SDS011;45224;50.904;6.038;2022-09-09T01:37:43;5.60;;;1.10;;
59418;SDS011;45224;50.904;6.038;2022-09-09T01:39:14;4.82;;;1.65;;
59418;SDS011;45224;50.904;6.038;2022-09-09T01:40:45;5.25;;;1.23;;
59418;SDS011;45224;50.904;6.038;2022-09-09T01:42:16;2.72;;;1.27;;
59418;SDS011;45224;50.904;6.038;2022-09-09T01:43:48;4.35;;;1.20;;
59418;SDS011;45224;50.904;6.038;2022-09-09T01:45:20;5.50;;;1.30;;
59418;SDS011;45224;50.904;6.038;2022-09-09T01:46:52;4.93;;;1.20;;
59418;SDS011;45224;50.904;6.038;2022-09-09T01:48:24;4.18;;;1.30;;
59418;SDS011;45224;50.904;6.038;2022-09-09T01:50:06;2.90;;;1.30;;
59418;SDS011;45224;50.904;6.038;2022-09-09T01:51:38;4.30;;;1.05;;
59418;SDS011;45224;50.904;6.038;2022-09-09T01:53:15;7.57;;;1.33;;
59418;SDS011;45224;50.904;6.038;2022-09-09T01:54:48;4.88;;;1.00;;
59418;SDS011;45224;50.904;6.038;2022-09-09T01:58:39;3.22;;;1.10;;
59418;SDS011;45224;50.904;6.038;2022-09-09T02:00:18;5.82;;;1.23;;
59418;SDS011;45224;50.904;6.038;2022-09-09T02:03:40;7.00;;;1.50;;
59418;SDS011;45224;50.904;6.038;2022-09-09T02:07:30;6.07;;;1.38;;
59418;SDS011;45224;50.904;6.038;2022-09-09T02:09:07;4.30;;;1.23;;
59418;SDS011;45224;50.904;6.038;2022-09-09T02:12:33;3.80;;;1.02;;
59418;SDS011;45224;50.904;6.038;2022-09-09T02:14:06;7.03;;;1.20;;
59418;SDS011;45224;50.904;6.038;2022-09-09T02:15:51;2.88;;;1.10;;
59418;SDS011;45224;50.904;6.038;2022-09-09T02:17:29;3.58;;;1.02;;
59418;SDS011;45224;50.904;6.038;2022-09-09T02:19:15;3.33;;;1.23;;
59418;SDS011;45224;50.904;6.038;2022-09-09T02:21:22;5.55;;;1.30;;
59418;SDS011;45224;50.904;6.038;2022-09-09T02:22:54;3.40;;;1.10;;
59418;SDS011;45224;50.904;6.038;2022-09-09T02:24:28;2.47;;;1.30;;
59418;SDS011;45224;50.904;6.038;2022-09-09T02:26:21;4.68;;;1.38;;
59418;SDS011;45224;50.904;6.038;2022-09-09T02:27:59;4.78;;;1.30;;
59418;SDS011;45224;50.904;6.038;2022-09-09T02:29:31;6.63;;;1.40;;
59418;SDS011;45224;50.904;6.038;2022-09-09T02:31:06;9.30;;;1.80;;
59418;SDS011;45224;50.904;6.038;2022-09-09T02:32:42;8.65;;;1.40;;
59418;SDS011;45224;50.904;6.038;2022-09-09T02:34:17;6.20;;;1.27;;
59418;SDS011;45224;50.904;6.038;2022-09-09T02:35:51;3.80;;;1.30;;
59418;SDS011;45224;50.904;6.038;2022-09-09T02:37:29;5.95;;;1.60;;
59418;SDS011;45224;50.904;6.038;2022-09-09T02:39:05;5.95;;;1.52;;
59418;SDS011;45224;50.904;6.038;2022-09-09T02:40:39;8.88;;;1.77;;
59418;SDS011;45224;50.904;6.038;2022-09-09T02:42:10;8.02;;;1.52;;
59418;SDS011;45224;50.904;6.038;2022-09-09T02:43:40;8.70;;;1.40;;
59418;SDS011;45224;50.904;6.038;2022-09-09T02:45:19;4.05;;;1.17;;
59418;SDS011;45224;50.904;6.038;2022-09-09T02:48:34;5.90;;;1.42;;
59418;SDS011;45224;50.904;6.038;2022-09-09T02:50:23;5.70;;;1.40;;
59418;SDS011;45224;50.904;6.038;2022-09-09T02:52:13;3.95;;;1.48;;
59418;SDS011;45224;50.904;6.038;2022-09-09T02:53:49;8.75;;;1.98;;
59418;SDS011;45224;50.904;6.038;2022-09-09T02:58:55;4.97;;;1.20;;
59418;SDS011;45224;50.904;6.038;2022-09-09T03:00:27;4.80;;;1.30;;
59418;SDS011;45224;50.904;6.038;2022-09-09T03:02:01;7.32;;;1.55;;
59418;SDS011;45224;50.904;6.038;2022-09-09T03:03:32;6.65;;;1.48;;
59418;SDS011;45224;50.904;6.038;2022-09-09T03:05:07;7.68;;;1.60;;
59418;SDS011;45224;50.904;6.038;2022-09-09T03:06:38;10.55;;;2.05;;
59418;SDS011;45224;50.904;6.038;2022-09-09T03:08:19;8.23;;;1.80;;
59418;SDS011;45224;50.904;6.038;2022-09-09T03:09:49;10.57;;;1.80;;
59418;SDS011;45224;50.904;6.038;2022-09-09T03:11:20;3.75;;;1.27;;
59418;SDS011;45224;50.904;6.038;2022-09-09T03:12:51;8.03;;;1.80;;
59418;SDS011;45224;50.904;6.038;2022-09-09T03:15:55;6.90;;;1.60;;
59418;SDS011;45224;50.904;6.038;2022-09-09T03:17:26;7.07;;;1.67;;
59418;SDS011;45224;50.904;6.038;2022-09-09T03:18:59;11.02;;;1.50;;
59418;SDS011;45224;50.904;6.038;2022-09-09T03:20:31;3.50;;;1.30;;
59418;SDS011;45224;50.904;6.038;2022-09-09T03:22:02;7.07;;;1.63;;
59418;SDS011;45224;50.904;6.038;2022-09-09T03:23:34;6.78;;;1.67;;
59418;SDS011;45224;50.904;6.038;2022-09-09T03:25:07;5.78;;;1.80;;
59418;SDS011;45224;50.904;6.038;2022-09-09T03:26:40;7.80;;;1.83;;
59418;SDS011;45224;50.904;6.038;2022-09-09T03:28:14;4.78;;;1.58;;
59418;SDS011;45224;50.904;6.038;2022-09-09T03:29:46;7.40;;;1.48;;
59418;SDS011;45224;50.904;6.038;2022-09-09T03:31:22;7.28;;;1.50;;
59418;SDS011;45224;50.904;6.038;2022-09-09T03:32:54;6.47;;;1.50;;
59418;SDS011;45224;50.904;6.038;2022-09-09T03:34:26;7.05;;;1.70;;
59418;SDS011;45224;50.904;6.038;2022-09-09T03:35:57;9.40;;;1.60;;
59418;SDS011;45224;50.904;6.038;2022-09-09T03:37:28;9.93;;;1.65;;
59418;SDS011;45224;50.904;6.038;2022-09-09T03:38:58;8.23;;;1.75;;
59418;SDS011;45224;50.904;6.038;2022-09-09T03:40:32;8.65;;;1.67;;
59418;SDS011;45224;50.904;6.038;2022-09-09T03:42:02;7.27;;;1.70;;
59418;SDS011;45224;50.904;6.038;2022-09-09T03:43:35;4.63;;;1.48;;
59418;SDS011;45224;50.904;6.038;2022-09-09T03:46:39;3.92;;;1.25;;
59418;SDS011;45224;50.904;6.038;2022-09-09T03:48:09;10.10;;;1.57;;
59418;SDS011;45224;50.904;6.038;2022-09-09T03:49:41;6.03;;;1.60;;
59418;SDS011;45224;50.904;6.038;2022-09-09T03:51:12;9.23;;;1.97;;
59418;SDS011;45224;50.904;6.038;2022-09-09T03:52:43;10.23;;;1.95;;
59418;SDS011;45224;50.904;6.038;2022-09-09T03:54:20;5.22;;;1.45;;
59418;SDS011;45224;50.904;6.038;2022-09-09T03:55:51;8.23;;;1.93;;
59418;SDS011;45224;50.904;6.038;2022-09-09T03:57:26;5.10;;;1.50;;
59418;SDS011;45224;50.904;6.038;2022-09-09T03:58:56;7.15;;;1.52;;
59418;SDS011;45224;50.904;6.038;2022-09-09T04:00:28;4.97;;;1.48;;
59418;SDS011;45224;50.904;6.038;2022-09-09T04:02:00;6.07;;;1.27;;
59418;SDS011;45224;50.904;6.038;2022-09-09T04:03:32;13.73;;;1.60;;
59418;SDS011;45224;50.904;6.038;2022-09-09T04:05:03;2.77;;;1.10;;
59418;SDS011;45224;50.904;6.038;2022-09-09T04:06:33;10.80;;;1.75;;
59418;SDS011;45224;50.904;6.038;2022-09-09T04:08:07;9.70;;;1.75;;
59418;SDS011;45224;50.904;6.038;2022-09-09T04:09:38;8.23;;;1.52;;
59418;SDS011;45224;50.904;6.038;2022-09-09T04:11:09;9.30;;;1.70;;
59418;SDS011;45224;50.904;6.038;2022-09-09T04:12:40;7.07;;;1.52;;
59418;SDS011;45224;50.904;6.038;2022-09-09T04:14:10;8.00;;;1.43;;
59418;SDS011;45224;50.904;6.038;2022-09-09T04:15:41;6.45;;;1.48;;
59418;SDS011;45224;50.904;6.038;2022-09-09T04:18:43;6.67;;;1.67;;
59418;SDS011;45224;50.904;6.038;2022-09-09T04:20:14;8.98;;;1.67;;
59418;SDS011;45224;50.904;6.038;2022-09-09T04:21:44;7.23;;;1.60;;
59418;SDS011;45224;50.904;6.038;2022-09-09T04:23:15;6.60;;;1.80;;
59418;SDS011;45224;50.904;6.038;2022-09-09T04:24:46;7.30;;;1.48;;
59418;SDS011;45224;50.904;6.038;2022-09-09T04:26:16;11.17;;;1.97;;
59418;SDS011;45224;50.904;6.038;2022-09-09T04:27:53;5.45;;;1.60;;
59418;SDS011;45224;50.904;6.038;2022-09-09T04:29:25;5.25;;;1.65;;
59418;SDS011;45224;50.904;6.038;2022-09-09T04:30:56;5.82;;;1.27;;
59418;SDS011;45224;50.904;6.038;2022-09-09T04:32:27;5.75;;;1.48;;
59418;SDS011;45224;50.904;6.038;2022-09-09T04:33:58;6.27;;;1.47;;
59418;SDS011;45224;50.904;6.038;2022-09-09T04:35:32;9.55;;;1.70;;
59418;SDS011;45224;50.904;6.038;2022-09-09T04:37:04;9.88;;;1.90;;
59418;SDS011;45224;50.904;6.038;2022-09-09T04:38:35;5.65;;;1.50;;
59418;SDS011;45224;50.904;6.038;2022-09-09T04:40:07;7.40;;;1.50;;
59418;SDS011;45224;50.904;6.038;2022-09-09T04:41:40;9.13;;;1.90;;
59418;SDS011;45224;50.904;6.038;2022-09-09T04:43:13;12.55;;;1.60;;
59418;SDS011;45224;50.904;6.038;2022-09-09T04:44:47;7.65;;;1.80;;
59418;SDS011;45224;50.904;6.038;2022-09-09T04:46:18;6.97;;;1.60;;
59418;SDS011;45224;50.904;6.038;2022-09-09T04:47:50;6.70;;;1.70;;
59418;SDS011;45224;50.904;6.038;2022-09-09T04:49:20;6.60;;;1.73;;
59418;SDS011;45224;50.904;6.038;2022-09-09T04:51:01;6.30;;;1.67;;
59418;SDS011;45224;50.904;6.038;2022-09-09T04:52:37;4.78;;;1.30;;
59418;SDS011;45224;50.904;6.038;2022-09-09T04:54:07;12.02;;;2.00;;
59418;SDS011;45224;50.904;6.038;2022-09-09T04:55:42;6.78;;;1.40;;
59418;SDS011;45224;50.904;6.038;2022-09-09T04:57:13;5.82;;;1.65;;
59418;SDS011;45224;50.904;6.038;2022-09-09T04:58:43;5.40;;;1.50;;
59418;SDS011;45224;50.904;6.038;2022-09-09T05:01:45;6.37;;;1.70;;
59418;SDS011;45224;50.904;6.038;2022-09-09T05:03:16;6.78;;;1.38;;
59418;SDS011;45224;50.904;6.038;2022-09-09T05:04:46;8.68;;;1.60;;
59418;SDS011;45224;50.904;6.038;2022-09-09T05:06:18;7.88;;;1.40;;
59418;SDS011;45224;50.904;6.038;2022-09-09T05:07:52;8.65;;;1.30;;
59418;SDS011;45224;50.904;6.038;2022-09-09T05:09:23;9.13;;;1.60;;
59418;SDS011;45224;50.904;6.038;2022-09-09T05:10:54;6.88;;;1.25;;
59418;SDS011;45224;50.904;6.038;2022-09-09T05:12:25;5.70;;;1.50;;
59418;SDS011;45224;50.904;6.038;2022-09-09T05:13:56;8.52;;;1.58;;
59418;SDS011;45224;50.904;6.038;2022-09-09T05:15:27;9.57;;;1.95;;
59418;SDS011;45224;50.904;6.038;2022-09-09T05:16:57;10.40;;;1.87;;
59418;SDS011;45224;50.904;6.038;2022-09-09T05:18:28;6.28;;;1.80;;
59418;SDS011;45224;50.904;6.038;2022-09-09T05:19:59;9.60;;;1.73;;
59418;SDS011;45224;50.904;6.038;2022-09-09T05:21:29;8.73;;;1.67;;
59418;SDS011;45224;50.904;6.038;2022-09-09T05:23:00;6.65;;;1.75;;
59418;SDS011;45224;50.904;6.038;2022-09-09T05:24:33;7.60;;;1.48;;
59418;SDS011;45224;50.904;6.038;2022-09-09T05:26:04;5.18;;;1.45;;
59418;SDS011;45224;50.904;6.038;2022-09-09T05:27:36;5.55;;;1.60;;
59418;SDS011;45224;50.904;6.038;2022-09-09T05:29:08;6.75;;;1.60;;
59418;SDS011;45224;50.904;6.038;2022-09-09T05:30:38;11.03;;;1.60;;
59418;SDS011;45224;50.904;6.038;2022-09-09T05:32:10;4.38;;;1.40;;
59418;SDS011;45224;50.904;6.038;2022-09-09T05:33:41;3.95;;;1.30;;
59418;SDS011;45224;50.904;6.038;2022-09-09T05:35:13;7.72;;;1.55;;
59418;SDS011;45224;50.904;6.038;2022-09-09T05:36:43;5.97;;;1.40;;
59418;SDS011;45224;50.904;6.038;2022-09-09T05:38:14;8.27;;;1.47;;
59418;SDS011;45224;50.904;6.038;2022-09-09T05:39:44;7.27;;;1.33;;
59418;SDS011;45224;50.904;6.038;2022-09-09T05:41:15;5.85;;;1.35;;
59418;SDS011;45224;50.904;6.038;2022-09-09T05:42:47;6.13;;;1.23;;
59418;SDS011;45224;50.904;6.038;2022-09-09T05:44:18;7.97;;;1.20;;
59418;SDS011;45224;50.904;6.038;2022-09-09T05:47:53;7.78;;;1.65;;
59418;SDS011;45224;50.904;6.038;2022-09-09T05:49:24;5.13;;;1.40;;
59418;SDS011;45224;50.904;6.038;2022-09-09T05:50:54;7.75;;;1.40;;
59418;SDS011;45224;50.904;6.038;2022-09-09T05:52:25;9.95;;;1.50;;
59418;SDS011;45224;50.904;6.038;2022-09-09T05:53:57;11.05;;;1.83;;
59418;SDS011;45224;50.904;6.038;2022-09-09T05:55:33;6.43;;;1.52;;
59418;SDS011;45224;50.904;6.038;2022-09-09T05:57:04;5.15;;;1.20;;
59418;SDS011;45224;50.904;6.038;2022-09-09T05:58:36;8.63;;;1.70;;
59418;SDS011;45224;50.904;6.038;2022-09-09T06:00:10;8.00;;;1.70;;
59418;SDS011;45224;50.904;6.038;2022-09-09T06:01:48;9.70;;;1.70;;
59418;SDS011;45224;50.904;6.038;2022-09-09T06:03:27;5.93;;;1.58;;
59418;SDS011;45224;50.904;6.038;2022-09-09T06:04:57;8.47;;;1.77;;
59418;SDS011;45224;50.904;6.038;2022-09-09T06:06:33;8.80;;;1.83;;
59418;SDS011;45224;50.904;6.038;2022-09-09T06:08:14;10.07;;;1.63;;
59418;SDS011;45224;50.904;6.038;2022-09-09T06:09:46;12.25;;;1.70;;
59418;SDS011;45224;50.904;6.038;2022-09-09T06:11:18;7.43;;;1.40;;
59418;SDS011;45224;50.904;6.038;2022-09-09T06:12:52;8.82;;;1.58;;
59418;SDS011;45224;50.904;6.038;2022-09-09T06:14:22;10.13;;;2.05;;
59418;SDS011;45224;50.904;6.038;2022-09-09T06:15:55;7.18;;;1.67;;
59418;SDS011;45224;50.904;6.038;2022-09-09T06:17:26;11.55;;;1.92;;
59418;SDS011;45224;50.904;6.038;2022-09-09T06:18:57;6.03;;;1.50;;
59418;SDS011;45224;50.904;6.038;2022-09-09T06:20:29;9.93;;;1.95;;
59418;SDS011;45224;50.904;6.038;2022-09-09T06:22:01;7.68;;;1.30;;
59418;SDS011;45224;50.904;6.038;2022-09-09T06:23:34;9.90;;;1.58;;
59418;SDS011;45224;50.904;6.038;2022-09-09T06:26:37;8.75;;;1.52;;
59418;SDS011;45224;50.904;6.038;2022-09-09T06:28:11;6.72;;;1.45;;
59418;SDS011;45224;50.904;6.038;2022-09-09T06:29:41;8.23;;;1.73;;
59418;SDS011;45224;50.904;6.038;2022-09-09T06:31:12;11.93;;;1.77;;
59418;SDS011;45224;50.904;6.038;2022-09-09T06:32:45;6.80;;;1.30;;
59418;SDS011;45224;50.904;6.038;2022-09-09T06:34:16;6.85;;;1.77;;
59418;SDS011;45224;50.904;6.038;2022-09-09T06:35:51;7.65;;;1.58;;
59418;SDS011;45224;50.904;6.038;2022-09-09T06:37:24;7.28;;;1.63;;
59418;SDS011;45224;50.904;6.038;2022-09-09T06:38:57;6.60;;;1.45;;
59418;SDS011;45224;50.904;6.038;2022-09-09T06:40:28;12.32;;;1.70;;
59418;SDS011;45224;50.904;6.038;2022-09-09T06:41:58;9.63;;;1.65;;
59418;SDS011;45224;50.904;6.038;2022-09-09T06:43:48;6.15;;;1.40;;
59418;SDS011;45224;50.904;6.038;2022-09-09T06:45:20;5.60;;;1.42;;
59418;SDS011;45224;50.904;6.038;2022-09-09T06:46:57;5.97;;;1.17;;
59418;SDS011;45224;50.904;6.038;2022-09-09T06:48:28;7.27;;;1.33;;
59418;SDS011;45224;50.904;6.038;2022-09-09T06:49:59;6.63;;;1.55;;
59418;SDS011;45224;50.904;6.038;2022-09-09T06:51:30;6.75;;;1.60;;
59418;SDS011;45224;50.904;6.038;2022-09-09T06:53:03;7.07;;;1.55;;
59418;SDS011;45224;50.904;6.038;2022-09-09T06:54:34;10.15;;;1.42;;
59418;SDS011;45224;50.904;6.038;2022-09-09T06:57:57;6.43;;;1.20;;
59418;SDS011;45224;50.904;6.038;2022-09-09T06:59:28;7.75;;;1.67;;
59418;SDS011;45224;50.904;6.038;2022-09-09T07:01:04;11.30;;;1.35;;
59418;SDS011;45224;50.904;6.038;2022-09-09T07:02:36;10.60;;;1.60;;
59418;SDS011;45224;50.904;6.038;2022-09-09T07:04:09;10.68;;;1.63;;
59418;SDS011;45224;50.904;6.038;2022-09-09T07:05:42;5.93;;;1.10;;
59418;SDS011;45224;50.904;6.038;2022-09-09T07:08:49;8.90;;;2.15;;
59418;SDS011;45224;50.904;6.038;2022-09-09T07:10:27;11.68;;;1.48;;
59418;SDS011;45224;50.904;6.038;2022-09-09T07:11:58;6.95;;;1.50;;
59418;SDS011;45224;50.904;6.038;2022-09-09T07:13:32;7.38;;;1.40;;
59418;SDS011;45224;50.904;6.038;2022-09-09T07:15:04;9.68;;;1.40;;
59418;SDS011;45224;50.904;6.038;2022-09-09T07:16:35;7.90;;;1.27;;
59418;SDS011;45224;50.904;6.038;2022-09-09T07:18:07;7.45;;;1.38;;
59418;SDS011;45224;50.904;6.038;2022-09-09T07:19:40;9.05;;;1.85;;
59418;SDS011;45224;50.904;6.038;2022-09-09T07:21:11;7.30;;;1.65;;
59418;SDS011;45224;50.904;6.038;2022-09-09T07:22:43;8.25;;;1.60;;
59418;SDS011;45224;50.904;6.038;2022-09-09T07:24:14;11.68;;;1.90;;
59418;SDS011;45224;50.904;6.038;2022-09-09T07:25:46;8.18;;;1.27;;
59418;SDS011;45224;50.904;6.038;2022-09-09T07:27:19;10.00;;;1.70;;
59418;SDS011;45224;50.904;6.038;2022-09-09T07:28:52;10.88;;;2.05;;
59418;SDS011;45224;50.904;6.038;2022-09-09T07:30:25;10.82;;;1.50;;
59418;SDS011;45224;50.904;6.038;2022-09-09T07:31:56;9.35;;;1.67;;
59418;SDS011;45224;50.904;6.038;2022-09-09T07:33:33;6.32;;;1.73;;
59418;SDS011;45224;50.904;6.038;2022-09-09T07:35:06;8.40;;;1.75;;
59418;SDS011;45224;50.904;6.038;2022-09-09T07:36:37;9.10;;;1.90;;
59418;SDS011;45224;50.904;6.038;2022-09-09T07:38:11;10.70;;;2.42;;
59418;SDS011;45224;50.904;6.038;2022-09-09T07:39:42;6.20;;;1.40;;
59418;SDS011;45224;50.904;6.038;2022-09-09T07:41:17;15.43;;;1.92;;
59418;SDS011;45224;50.904;6.038;2022-09-09T07:42:53;10.60;;;1.55;;
59418;SDS011;45224;50.904;6.038;2022-09-09T07:44:25;11.65;;;1.58;;
59418;SDS011;45224;50.904;6.038;2022-09-09T07:46:07;6.80;;;1.48;;
59418;SDS011;45224;50.904;6.038;2022-09-09T07:47:39;7.80;;;1.48;;
59418;SDS011;45224;50.904;6.038;2022-09-09T07:49:09;4.90;;;1.23;;
59418;SDS011;45224;50.904;6.038;2022-09-09T07:50:41;6.32;;;1.35;;
59418;SDS011;45224;50.904;6.038;2022-09-09T07:53:46;9.57;;;1.88;;
59418;SDS011;45224;50.904;6.038;2022-09-09T07:55:16;6.47;;;1.40;;
59418;SDS011;45224;50.904;6.038;2022-09-09T07:56:47;6.88;;;1.55;;
59418;SDS011;45224;50.904;6.038;2022-09-09T07:58:18;6.20;;;1.55;;
59418;SDS011;45224;50.904;6.038;2022-09-09T07:59:48;8.82;;;1.60;;
59418;SDS011;45224;50.904;6.038;2022-09-09T08:01:20;7.93;;;1.70;;
59418;SDS011;45224;50.904;6.038;2022-09-09T08:02:53;7.80;;;1.70;;
59418;SDS011;45224;50.904;6.038;2022-09-09T08:05:59;13.95;;;1.80;;
59418;SDS011;45224;50.904;6.038;2022-09-09T08:07:34;7.40;;;1.60;;
59418;SDS011;45224;50.904;6.038;2022-09-09T08:09:06;8.00;;;1.40;;
59418;SDS011;45224;50.904;6.038;2022-09-09T08:10:37;8.93;;;1.73;;
59418;SDS011;45224;50.904;6.038;2022-09-09T08:12:08;10.38;;;1.80;;
59418;SDS011;45224;50.904;6.038;2022-09-09T08:13:39;8.10;;;1.20;;
59418;SDS011;45224;50.904;6.038;2022-09-09T08:15:11;7.18;;;1.45;;
59418;SDS011;45224;50.904;6.038;2022-09-09T08:18:15;6.05;;;1.73;;
59418;SDS011;45224;50.904;6.038;2022-09-09T08:19:45;7.25;;;1.52;;
59418;SDS011;45224;50.904;6.038;2022-09-09T08:21:29;8.45;;;1.67;;
59418;SDS011;45224;50.904;6.038;2022-09-09T08:23:02;5.88;;;1.60;;
59418;SDS011;45224;50.904;6.038;2022-09-09T08:24:33;5.60;;;1.00;;
59418;SDS011;45224;50.904;6.038;2022-09-09T08:26:10;9.70;;;1.58;;
59418;SDS011;45224;50.904;6.038;2022-09-09T08:27:46;7.63;;;1.50;;
59418;SDS011;45224;50.904;6.038;2022-09-09T08:29:17;5.82;;;1.73;;
59418;SDS011;45224;50.904;6.038;2022-09-09T08:30:49;9.70;;;1.48;;
59418;SDS011;45224;50.904;6.038;2022-09-09T08:32:21;5.30;;;1.42;;
59418;SDS011;45224;50.904;6.038;2022-09-09T08:33:53;6.68;;;1.50;;
59418;SDS011;45224;50.904;6.038;2022-09-09T08:35:24;8.10;;;1.60;;
59418;SDS011;45224;50.904;6.038;2022-09-09T08:36:55;7.45;;;1.50;;
59418;SDS011;45224;50.904;6.038;2022-09-09T08:38:32;8.25;;;1.40;;
59418;SDS011;45224;50.904;6.038;2022-09-09T08:43:43;4.85;;;1.48;;
59418;SDS011;45224;50.904;6.038;2022-09-09T08:45:28;7.82;;;1.30;;
59418;SDS011;45224;50.904;6.038;2022-09-09T08:48:54;9.00;;;1.30;;
59418;SDS011;45224;50.904;6.038;2022-09-09T08:50:37;6.88;;;1.33;;
59418;SDS011;45224;50.904;6.038;2022-09-09T08:52:18;4.25;;;1.05;;
59418;SDS011;45224;50.904;6.038;2022-09-09T08:53:52;7.28;;;1.33;;
59418;SDS011;45224;50.904;6.038;2022-09-09T08:57:17;7.63;;;1.45;;
59418;SDS011;45224;50.904;6.038;2022-09-09T08:58:53;10.32;;;1.85;;
59418;SDS011;45224;50.904;6.038;2022-09-09T09:11:19;5.82;;;1.40;;
59418;SDS011;45224;50.904;6.038;2022-09-09T09:12:49;7.72;;;1.30;;
59418;SDS011;45224;50.904;6.038;2022-09-09T09:14:24;6.32;;;1.20;;
59418;SDS011;45224;50.904;6.038;2022-09-09T09:16:00;4.72;;;1.17;;
59418;SDS011;45224;50.904;6.038;2022-09-09T09:17:37;9.30;;;1.52;;
59418;SDS011;45224;50.904;6.038;2022-09-09T09:19:12;6.20;;;1.20;;
59418;SDS011;45224;50.904;6.038;2022-09-09T09:24:27;5.82;;;1.23;;
59418;SDS011;45224;50.904;6.038;2022-09-09T09:26:12;6.85;;;1.23;;
59418;SDS011;45224;50.904;6.038;2022-09-09T09:27:46;6.45;;;1.42;;
59418;SDS011;45224;50.904;6.038;2022-09-09T09:29:23;5.65;;;1.27;;
59418;SDS011;45224;50.904;6.038;2022-09-09T09:30:58;6.75;;;1.73;;
59418;SDS011;45224;50.904;6.038;2022-09-09T09:32:38;6.75;;;1.40;;
59418;SDS011;45224;50.904;6.038;2022-09-09T09:34:13;15.18;;;1.58;;
59418;SDS011;45224;50.904;6.038;2022-09-09T09:37:26;8.68;;;1.25;;
59418;SDS011;45224;50.904;6.038;2022-09-09T09:39:03;10.45;;;1.50;;
59418;SDS011;45224;50.904;6.038;2022-09-09T09:40:36;6.28;;;1.30;;
59418;SDS011;45224;50.904;6.038;2022-09-09T09:42:13;10.77;;;1.58;;
59418;SDS011;45224;50.904;6.038;2022-09-09T09:43:53;7.68;;;1.40;;
59418;SDS011;45224;50.904;6.038;2022-09-09T09:48:39;5.55;;;1.52;;
59418;SDS011;45224;50.904;6.038;2022-09-09T09:50:17;6.93;;;1.50;;
59418;SDS011;45224;50.904;6.038;2022-09-09T09:51:49;10.15;;;1.63;;
59418;SDS011;45224;50.904;6.038;2022-09-09T09:54:58;8.50;;;1.38;;
59418;SDS011;45224;50.904;6.038;2022-09-09T09:56:32;8.65;;;1.50;;
59418;SDS011;45224;50.904;6.038;2022-09-09T09:58:06;10.85;;;1.42;;
59418;SDS011;45224;50.904;6.038;2022-09-09T09:59:38;4.25;;;1.23;;
59418;SDS011;45224;50.904;6.038;2022-09-09T10:02:54;6.25;;;1.83;;
59418;SDS011;45224;50.904;6.038;2022-09-09T10:04:29;8.45;;;1.30;;
59418;SDS011;45224;50.904;6.038;2022-09-09T10:06:00;5.22;;;1.30;;
59418;SDS011;45224;50.904;6.038;2022-09-09T10:07:31;6.75;;;1.70;;
59418;SDS011;45224;50.904;6.038;2022-09-09T10:10:53;6.63;;;1.65;;
59418;SDS011;45224;50.904;6.038;2022-09-09T10:22:44;9.57;;;1.73;;
59418;SDS011;45224;50.904;6.038;2022-09-09T10:26:22;9.13;;;1.40;;
59418;SDS011;45224;50.904;6.038;2022-09-09T10:30:24;6.93;;;1.48;;
59418;SDS011;45224;50.904;6.038;2022-09-09T10:32:12;7.65;;;1.38;;
59418;SDS011;45224;50.904;6.038;2022-09-09T10:34:15;9.02;;;1.35;;
59418;SDS011;45224;50.904;6.038;2022-09-09T10:41:26;8.98;;;1.52;;
59418;SDS011;45224;50.904;6.038;2022-09-09T10:42:54;7.22;;;1.17;;
59418;SDS011;45224;50.904;6.038;2022-09-09T10:44:34;4.60;;;1.17;;
59418;SDS011;45224;50.904;6.038;2022-09-09T10:55:14;6.32;;;1.45;;
59418;SDS011;45224;50.904;6.038;2022-09-09T10:56:58;8.90;;;0.93;;
59418;SDS011;45224;50.904;6.038;2022-09-09T11:02:18;6.88;;;1.50;;
59418;SDS011;45224;50.904;6.038;2022-09-09T11:04:32;6.93;;;1.10;;
59418;SDS011;45224;50.904;6.038;2022-09-09T11:06:04;5.20;;;1.35;;
59418;SDS011;45224;50.904;6.038;2022-09-09T11:07:44;5.45;;;1.30;;
59418;SDS011;45224;50.904;6.038;2022-09-09T11:09:26;5.95;;;1.25;;
59418;SDS011;45224;50.904;6.038;2022-09-09T11:12:49;4.35;;;1.10;;
59418;SDS011;45224;50.904;6.038;2022-09-09T11:17:45;11.07;;;1.30;;
59418;SDS011;45224;50.904;6.038;2022-09-09T11:19:22;3.97;;;1.30;;
59418;SDS011;45224;50.904;6.038;2022-09-09T11:20:56;5.78;;;1.02;;
59418;SDS011;45224;50.904;6.038;2022-09-09T11:24:22;7.60;;;1.40;;
59418;SDS011;45224;50.904;6.038;2022-09-09T11:25:59;9.07;;;1.23;;
59418;SDS011;45224;50.904;6.038;2022-09-09T11:29:51;3.08;;;1.30;;
59418;SDS011;45224;50.904;6.038;2022-09-09T11:33:19;6.10;;;1.20;;
59418;SDS011;45224;50.904;6.038;2022-09-09T11:38:53;6.20;;;1.40;;
59418;SDS011;45224;50.904;6.038;2022-09-09T11:40:30;4.13;;;1.00;;
59418;SDS011;45224;50.904;6.038;2022-09-09T11:45:19;3.40;;;1.33;;
59418;SDS011;45224;50.904;6.038;2022-09-09T11:46:53;6.07;;;1.35;;
59418;SDS011;45224;50.904;6.038;2022-09-09T11:51:44;4.80;;;1.15;;
59418;SDS011;45224;50.904;6.038;2022-09-09T11:53:19;4.00;;;0.83;;
59418;SDS011;45224;50.904;6.038;2022-09-09T11:54:54;4.25;;;1.08;;
59418;SDS011;45224;50.904;6.038;2022-09-09T11:59:51;5.40;;;1.15;;